sensor_id;sensor_type;location;lat;lon;timestamp;P1;durP1;ratioP1;P2;durP2;ratioP2
13244;SDS011;6689;53.400;12.486;2023-11-21T00:02:10;11.43;;;7.85;;
13244;SDS011;6689;53.400;12.486;2023-11-21T00:04:38;10.80;;;8.02;;
13244;SDS011;6689;53.400;12.486;2023-11-21T00:07:06;14.15;;;8.45;;
13244;SDS011;6689;53.400;12.486;2023-11-21T00:09:34;12.80;;;7.95;;
13244;SDS011;6689;53.400;12.486;2023-11-21T00:12:02;13.43;;;8.80;;
13244;SDS011;6689;53.400;12.486;2023-11-21T00:14:31;11.98;;;7.70;;
13244;SDS011;6689;53.400;12.486;2023-11-21T00:16:59;11.15;;;7.40;;
13244;SDS011;6689;53.400;12.486;2023-11-21T00:19:26;12.63;;;9.20;;
13244;SDS011;6689;53.400;12.486;2023-11-21T00:21:55;10.48;;;7.30;;
13244;SDS011;6689;53.400;12.486;2023-11-21T00:24:25;13.70;;;8.25;;
13244;SDS011;6689;53.400;12.486;2023-11-21T00:26:52;15.00;;;8.18;;
13244;SDS011;6689;53.400;12.486;2023-11-21T00:29:19;12.13;;;8.00;;
13244;SDS011;6689;53.400;12.486;2023-11-21T00:31:46;11.13;;;8.27;;
13244;SDS011;6689;53.400;12.486;2023-11-21T00:34:14;13.05;;;7.78;;
13244;SDS011;6689;53.400;12.486;2023-11-21T00:36:41;13.35;;;7.85;;
13244;SDS011;6689;53.400;12.486;2023-11-21T00:39:08;11.95;;;8.00;;
13244;SDS011;6689;53.400;12.486;2023-11-21T00:41:38;12.07;;;8.60;;
13244;SDS011;6689;53.400;12.486;2023-11-21T00:44:05;11.82;;;8.02;;
13244;SDS011;6689;53.400;12.486;2023-11-21T00:46:33;15.07;;;8.32;;
13244;SDS011;6689;53.400;12.486;2023-11-21T00:49:02;11.25;;;7.60;;
13244;SDS011;6689;53.400;12.486;2023-11-21T00:51:30;11.02;;;7.85;;
13244;SDS011;6689;53.400;12.486;2023-11-21T00:53:59;11.00;;;7.47;;
13244;SDS011;6689;53.400;12.486;2023-11-21T00:56:26;12.88;;;8.20;;
13244;SDS011;6689;53.400;12.486;2023-11-21T00:58:55;13.18;;;7.72;;
13244;SDS011;6689;53.400;12.486;2023-11-21T01:01:23;12.45;;;8.77;;
13244;SDS011;6689;53.400;12.486;2023-11-21T01:03:50;11.82;;;7.57;;
13244;SDS011;6689;53.400;12.486;2023-11-21T01:06:19;14.65;;;7.55;;
13244;SDS011;6689;53.400;12.486;2023-11-21T01:08:46;12.93;;;8.68;;
13244;SDS011;6689;53.400;12.486;2023-11-21T01:11:14;12.48;;;8.82;;
13244;SDS011;6689;53.400;12.486;2023-11-21T01:13:41;11.63;;;7.72;;
13244;SDS011;6689;53.400;12.486;2023-11-21T01:16:11;10.95;;;8.10;;
13244;SDS011;6689;53.400;12.486;2023-11-21T01:18:38;11.20;;;8.15;;
13244;SDS011;6689;53.400;12.486;2023-11-21T01:21:06;9.73;;;7.38;;
13244;SDS011;6689;53.400;12.486;2023-11-21T01:23:34;12.45;;;7.47;;
13244;SDS011;6689;53.400;12.486;2023-11-21T01:26:01;11.88;;;8.05;;
13244;SDS011;6689;53.400;12.486;2023-11-21T01:28:29;12.63;;;9.60;;
13244;SDS011;6689;53.400;12.486;2023-11-21T01:30:57;9.88;;;7.32;;
13244;SDS011;6689;53.400;12.486;2023-11-21T01:33:28;13.25;;;8.52;;
13244;SDS011;6689;53.400;12.486;2023-11-21T01:35:56;10.50;;;6.95;;
13244;SDS011;6689;53.400;12.486;2023-11-21T01:38:24;10.05;;;7.20;;
13244;SDS011;6689;53.400;12.486;2023-11-21T01:40:51;10.48;;;6.85;;
13244;SDS011;6689;53.400;12.486;2023-11-21T01:43:19;10.98;;;7.78;;
13244;SDS011;6689;53.400;12.486;2023-11-21T01:45:46;11.00;;;7.65;;
13244;SDS011;6689;53.400;12.486;2023-11-21T01:48:14;11.90;;;8.43;;
13244;SDS011;6689;53.400;12.486;2023-11-21T01:50:44;10.30;;;7.65;;
13244;SDS011;6689;53.400;12.486;2023-11-21T01:53:14;11.45;;;7.35;;
13244;SDS011;6689;53.400;12.486;2023-11-21T01:55:42;11.55;;;8.10;;
13244;SDS011;6689;53.400;12.486;2023-11-21T01:58:09;11.68;;;8.30;;
13244;SDS011;6689;53.400;12.486;2023-11-21T02:00:39;13.20;;;7.78;;
13244;SDS011;6689;53.400;12.486;2023-11-21T02:03:07;11.40;;;7.38;;
13244;SDS011;6689;53.400;12.486;2023-11-21T02:05:37;11.00;;;7.13;;
13244;SDS011;6689;53.400;12.486;2023-11-21T02:08:06;12.13;;;8.00;;
13244;SDS011;6689;53.400;12.486;2023-11-21T02:10:34;10.18;;;7.60;;
13244;SDS011;6689;53.400;12.486;2023-11-21T02:13:02;11.63;;;7.72;;
13244;SDS011;6689;53.400;12.486;2023-11-21T02:15:31;10.32;;;7.78;;
13244;SDS011;6689;53.400;12.486;2023-11-21T02:17:58;10.30;;;7.88;;
13244;SDS011;6689;53.400;12.486;2023-11-21T02:20:28;9.85;;;7.47;;
13244;SDS011;6689;53.400;12.486;2023-11-21T02:22:57;14.23;;;8.80;;
13244;SDS011;6689;53.400;12.486;2023-11-21T02:25:27;12.82;;;7.63;;
13244;SDS011;6689;53.400;12.486;2023-11-21T02:27:57;12.07;;;8.95;;
13244;SDS011;6689;53.400;12.486;2023-11-21T02:30:27;9.80;;;7.35;;
13244;SDS011;6689;53.400;12.486;2023-11-21T02:32:57;11.15;;;7.75;;
13244;SDS011;6689;53.400;12.486;2023-11-21T02:35:26;10.40;;;7.47;;
13244;SDS011;6689;53.400;12.486;2023-11-21T02:37:54;13.02;;;7.38;;
13244;SDS011;6689;53.400;12.486;2023-11-21T02:40:23;10.15;;;7.40;;
13244;SDS011;6689;53.400;12.486;2023-11-21T02:42:51;12.90;;;8.15;;
13244;SDS011;6689;53.400;12.486;2023-11-21T02:45:20;10.65;;;7.65;;
13244;SDS011;6689;53.400;12.486;2023-11-21T02:47:49;11.43;;;7.50;;
13244;SDS011;6689;53.400;12.486;2023-11-21T02:50:18;8.77;;;6.65;;
13244;SDS011;6689;53.400;12.486;2023-11-21T02:52:47;10.23;;;7.63;;
13244;SDS011;6689;53.400;12.486;2023-11-21T02:55:15;11.07;;;7.82;;
13244;SDS011;6689;53.400;12.486;2023-11-21T02:57:45;10.57;;;7.60;;
13244;SDS011;6689;53.400;12.486;2023-11-21T03:00:13;8.98;;;6.45;;
13244;SDS011;6689;53.400;12.486;2023-11-21T03:02:41;8.70;;;6.32;;
13244;SDS011;6689;53.400;12.486;2023-11-21T03:05:08;10.52;;;7.35;;
13244;SDS011;6689;53.400;12.486;2023-11-21T03:07:36;9.70;;;7.25;;
13244;SDS011;6689;53.400;12.486;2023-11-21T03:10:05;13.07;;;7.68;;
13244;SDS011;6689;53.400;12.486;2023-11-21T03:12:39;10.88;;;7.60;;
13244;SDS011;6689;53.400;12.486;2023-11-21T03:15:09;9.23;;;6.78;;
13244;SDS011;6689;53.400;12.486;2023-11-21T03:17:36;11.02;;;7.85;;
13244;SDS011;6689;53.400;12.486;2023-11-21T03:20:06;13.32;;;7.28;;
13244;SDS011;6689;53.400;12.486;2023-11-21T03:22:39;12.43;;;7.80;;
13244;SDS011;6689;53.400;12.486;2023-11-21T03:25:06;12.02;;;7.85;;
13244;SDS011;6689;53.400;12.486;2023-11-21T03:27:36;12.13;;;7.13;;
13244;SDS011;6689;53.400;12.486;2023-11-21T03:50:19;10.05;;;7.07;;
13244;SDS011;6689;53.400;12.486;2023-11-21T03:52:48;11.60;;;8.25;;
13244;SDS011;6689;53.400;12.486;2023-11-21T03:55:15;9.68;;;7.43;;
13244;SDS011;6689;53.400;12.486;2023-11-21T03:57:43;12.05;;;8.32;;
13244;SDS011;6689;53.400;12.486;2023-11-21T04:00:10;12.23;;;7.68;;
13244;SDS011;6689;53.400;12.486;2023-11-21T04:02:38;12.93;;;8.80;;
13244;SDS011;6689;53.400;12.486;2023-11-21T04:05:06;13.63;;;9.05;;
13244;SDS011;6689;53.400;12.486;2023-11-21T04:07:35;11.70;;;8.55;;
13244;SDS011;6689;53.400;12.486;2023-11-21T04:10:06;16.23;;;8.57;;
13244;SDS011;6689;53.400;12.486;2023-11-21T04:12:37;13.05;;;8.35;;
13244;SDS011;6689;53.400;12.486;2023-11-21T04:15:05;10.75;;;8.45;;
13244;SDS011;6689;53.400;12.486;2023-11-21T04:17:34;11.65;;;8.70;;
13244;SDS011;6689;53.400;12.486;2023-11-21T04:20:02;12.27;;;8.80;;
13244;SDS011;6689;53.400;12.486;2023-11-21T04:22:37;12.70;;;8.30;;
13244;SDS011;6689;53.400;12.486;2023-11-21T04:25:15;10.40;;;7.80;;
13244;SDS011;6689;53.400;12.486;2023-11-21T04:27:43;10.35;;;8.00;;
13244;SDS011;6689;53.400;12.486;2023-11-21T04:30:11;12.48;;;7.18;;
13244;SDS011;6689;53.400;12.486;2023-11-21T04:32:40;13.60;;;8.80;;
13244;SDS011;6689;53.400;12.486;2023-11-21T04:35:10;11.30;;;8.45;;
13244;SDS011;6689;53.400;12.486;2023-11-21T04:37:39;10.30;;;7.72;;
13244;SDS011;6689;53.400;12.486;2023-11-21T04:40:07;12.25;;;8.10;;
13244;SDS011;6689;53.400;12.486;2023-11-21T04:42:35;11.95;;;8.30;;
13244;SDS011;6689;53.400;12.486;2023-11-21T04:45:03;12.07;;;9.48;;
13244;SDS011;6689;53.400;12.486;2023-11-21T04:47:34;14.07;;;8.68;;
13244;SDS011;6689;53.400;12.486;2023-11-21T04:50:01;11.38;;;7.03;;
13244;SDS011;6689;53.400;12.486;2023-11-21T04:52:30;11.00;;;7.95;;
13244;SDS011;6689;53.400;12.486;2023-11-21T04:54:59;10.68;;;7.82;;
13244;SDS011;6689;53.400;12.486;2023-11-21T04:57:27;11.75;;;7.60;;
13244;SDS011;6689;53.400;12.486;2023-11-21T04:59:55;11.93;;;7.35;;
13244;SDS011;6689;53.400;12.486;2023-11-21T05:02:22;14.80;;;8.30;;
13244;SDS011;6689;53.400;12.486;2023-11-21T05:04:49;10.75;;;7.65;;
13244;SDS011;6689;53.400;12.486;2023-11-21T05:07:16;8.75;;;6.45;;
13244;SDS011;6689;53.400;12.486;2023-11-21T05:09:44;10.38;;;7.65;;
13244;SDS011;6689;53.400;12.486;2023-11-21T05:12:13;10.60;;;7.95;;
13244;SDS011;6689;53.400;12.486;2023-11-21T05:14:41;10.27;;;7.47;;
13244;SDS011;6689;53.400;12.486;2023-11-21T05:17:10;11.20;;;7.20;;
13244;SDS011;6689;53.400;12.486;2023-11-21T05:19:37;9.07;;;6.95;;
13244;SDS011;6689;53.400;12.486;2023-11-21T05:22:05;10.18;;;6.93;;
13244;SDS011;6689;53.400;12.486;2023-11-21T05:24:36;11.98;;;8.63;;
13244;SDS011;6689;53.400;12.486;2023-11-21T05:27:04;11.55;;;7.88;;
13244;SDS011;6689;53.400;12.486;2023-11-21T05:29:32;11.13;;;7.78;;
13244;SDS011;6689;53.400;12.486;2023-11-21T05:32:00;10.32;;;7.80;;
13244;SDS011;6689;53.400;12.486;2023-11-21T05:34:27;11.07;;;7.63;;
13244;SDS011;6689;53.400;12.486;2023-11-21T05:36:54;12.10;;;8.48;;
13244;SDS011;6689;53.400;12.486;2023-11-21T05:39:23;14.40;;;7.90;;
13244;SDS011;6689;53.400;12.486;2023-11-21T05:41:50;11.50;;;8.00;;
13244;SDS011;6689;53.400;12.486;2023-11-21T05:44:17;11.52;;;7.88;;
13244;SDS011;6689;53.400;12.486;2023-11-21T05:46:46;12.07;;;7.60;;
13244;SDS011;6689;53.400;12.486;2023-11-21T05:49:15;11.65;;;8.07;;
13244;SDS011;6689;53.400;12.486;2023-11-21T05:51:42;13.30;;;7.93;;
13244;SDS011;6689;53.400;12.486;2023-11-21T05:54:10;10.98;;;7.45;;
13244;SDS011;6689;53.400;12.486;2023-11-21T05:56:38;10.95;;;6.95;;
13244;SDS011;6689;53.400;12.486;2023-11-21T05:59:05;11.55;;;7.57;;
13244;SDS011;6689;53.400;12.486;2023-11-21T06:01:35;8.65;;;6.80;;
13244;SDS011;6689;53.400;12.486;2023-11-21T06:04:05;9.82;;;8.30;;
13244;SDS011;6689;53.400;12.486;2023-11-21T06:06:33;9.73;;;6.75;;
13244;SDS011;6689;53.400;12.486;2023-11-21T06:09:00;11.77;;;8.02;;
13244;SDS011;6689;53.400;12.486;2023-11-21T06:11:27;12.55;;;7.75;;
13244;SDS011;6689;53.400;12.486;2023-11-21T06:13:55;11.57;;;8.18;;
13244;SDS011;6689;53.400;12.486;2023-11-21T06:16:22;12.70;;;8.85;;
13244;SDS011;6689;53.400;12.486;2023-11-21T06:18:49;10.93;;;7.82;;
13244;SDS011;6689;53.400;12.486;2023-11-21T06:21:18;14.48;;;8.30;;
13244;SDS011;6689;53.400;12.486;2023-11-21T06:23:46;20.38;;;15.80;;
13244;SDS011;6689;53.400;12.486;2023-11-21T06:26:13;16.58;;;9.00;;
13244;SDS011;6689;53.400;12.486;2023-11-21T06:28:40;13.25;;;8.15;;
13244;SDS011;6689;53.400;12.486;2023-11-21T06:31:08;16.67;;;8.40;;
13244;SDS011;6689;53.400;12.486;2023-11-21T06:33:36;13.13;;;8.15;;
13244;SDS011;6689;53.400;12.486;2023-11-21T06:36:03;14.82;;;7.78;;
13244;SDS011;6689;53.400;12.486;2023-11-21T06:38:32;11.63;;;9.00;;
13244;SDS011;6689;53.400;12.486;2023-11-21T06:40:59;14.95;;;8.38;;
13244;SDS011;6689;53.400;12.486;2023-11-21T06:43:29;11.40;;;7.60;;
13244;SDS011;6689;53.400;12.486;2023-11-21T06:45:57;13.32;;;7.20;;
13244;SDS011;6689;53.400;12.486;2023-11-21T06:48:25;8.90;;;6.57;;
13244;SDS011;6689;53.400;12.486;2023-11-21T06:50:52;13.98;;;7.40;;
13244;SDS011;6689;53.400;12.486;2023-11-21T06:53:20;10.68;;;6.32;;
13244;SDS011;6689;53.400;12.486;2023-11-21T06:55:49;10.07;;;6.40;;
13244;SDS011;6689;53.400;12.486;2023-11-21T06:58:16;11.63;;;7.40;;
13244;SDS011;6689;53.400;12.486;2023-11-21T07:00:43;8.85;;;6.13;;
13244;SDS011;6689;53.400;12.486;2023-11-21T07:03:13;7.95;;;5.88;;
13244;SDS011;6689;53.400;12.486;2023-11-21T07:05:40;7.45;;;5.75;;
13244;SDS011;6689;53.400;12.486;2023-11-21T07:08:08;9.88;;;6.30;;
13244;SDS011;6689;53.400;12.486;2023-11-21T07:10:35;8.88;;;5.13;;
13244;SDS011;6689;53.400;12.486;2023-11-21T07:13:04;7.70;;;5.50;;
13244;SDS011;6689;53.400;12.486;2023-11-21T07:15:32;8.18;;;5.40;;
13244;SDS011;6689;53.400;12.486;2023-11-21T07:17:59;7.63;;;5.78;;
13244;SDS011;6689;53.400;12.486;2023-11-21T07:20:27;11.65;;;5.18;;
13244;SDS011;6689;53.400;12.486;2023-11-21T07:22:55;8.07;;;5.88;;
13244;SDS011;6689;53.400;12.486;2023-11-21T07:25:23;8.70;;;4.97;;
13244;SDS011;6689;53.400;12.486;2023-11-21T07:27:51;7.35;;;5.20;;
13244;SDS011;6689;53.400;12.486;2023-11-21T07:30:21;7.28;;;4.80;;
13244;SDS011;6689;53.400;12.486;2023-11-21T07:32:48;9.30;;;5.95;;
13244;SDS011;6689;53.400;12.486;2023-11-21T07:35:16;7.68;;;5.10;;
13244;SDS011;6689;53.400;12.486;2023-11-21T07:37:43;7.85;;;4.43;;
13244;SDS011;6689;53.400;12.486;2023-11-21T07:40:12;7.10;;;4.28;;
13244;SDS011;6689;53.400;12.486;2023-11-21T07:42:39;4.88;;;3.80;;
13244;SDS011;6689;53.400;12.486;2023-11-21T07:45:08;6.55;;;4.43;;
13244;SDS011;6689;53.400;12.486;2023-11-21T07:47:38;5.68;;;4.10;;
13244;SDS011;6689;53.400;12.486;2023-11-21T07:50:06;7.97;;;4.80;;
13244;SDS011;6689;53.400;12.486;2023-11-21T07:52:35;9.02;;;4.28;;
13244;SDS011;6689;53.400;12.486;2023-11-21T07:55:02;6.10;;;4.15;;
13244;SDS011;6689;53.400;12.486;2023-11-21T07:57:30;7.55;;;4.20;;
13244;SDS011;6689;53.400;12.486;2023-11-21T07:59:58;7.03;;;4.13;;
13244;SDS011;6689;53.400;12.486;2023-11-21T08:02:26;5.82;;;4.53;;
13244;SDS011;6689;53.400;12.486;2023-11-21T08:04:55;5.47;;;4.22;;
13244;SDS011;6689;53.400;12.486;2023-11-21T08:07:22;8.35;;;4.55;;
13244;SDS011;6689;53.400;12.486;2023-11-21T08:09:49;9.43;;;4.85;;
13244;SDS011;6689;53.400;12.486;2023-11-21T08:12:16;7.63;;;3.97;;
13244;SDS011;6689;53.400;12.486;2023-11-21T08:14:45;6.15;;;4.40;;
13244;SDS011;6689;53.400;12.486;2023-11-21T08:17:12;5.50;;;4.00;;
13244;SDS011;6689;53.400;12.486;2023-11-21T08:19:40;5.47;;;4.10;;
13244;SDS011;6689;53.400;12.486;2023-11-21T08:22:08;6.78;;;4.40;;
13244;SDS011;6689;53.400;12.486;2023-11-21T08:24:36;5.57;;;4.35;;
13244;SDS011;6689;53.400;12.486;2023-11-21T08:27:04;5.15;;;4.07;;
13244;SDS011;6689;53.400;12.486;2023-11-21T08:29:32;6.82;;;4.50;;
13244;SDS011;6689;53.400;12.486;2023-11-21T08:32:02;7.45;;;5.20;;
13244;SDS011;6689;53.400;12.486;2023-11-21T08:34:30;10.80;;;5.38;;
13244;SDS011;6689;53.400;12.486;2023-11-21T08:36:57;5.65;;;3.70;;
13244;SDS011;6689;53.400;12.486;2023-11-21T08:39:26;7.60;;;5.25;;
13244;SDS011;6689;53.400;12.486;2023-11-21T08:41:53;6.03;;;3.97;;
13244;SDS011;6689;53.400;12.486;2023-11-21T08:44:20;6.35;;;4.03;;
13244;SDS011;6689;53.400;12.486;2023-11-21T08:46:48;5.63;;;3.97;;
13244;SDS011;6689;53.400;12.486;2023-11-21T08:49:15;7.40;;;4.65;;
13244;SDS011;6689;53.400;12.486;2023-11-21T08:51:43;5.60;;;4.07;;
13244;SDS011;6689;53.400;12.486;2023-11-21T08:54:14;5.90;;;3.85;;
13244;SDS011;6689;53.400;12.486;2023-11-21T08:56:43;7.32;;;4.90;;
13244;SDS011;6689;53.400;12.486;2023-11-21T08:59:11;8.07;;;4.63;;
13244;SDS011;6689;53.400;12.486;2023-11-21T09:01:40;8.30;;;4.35;;
13244;SDS011;6689;53.400;12.486;2023-11-21T09:04:07;8.95;;;5.05;;
13244;SDS011;6689;53.400;12.486;2023-11-21T09:06:35;8.15;;;4.57;;
13244;SDS011;6689;53.400;12.486;2023-11-21T09:09:02;7.47;;;4.75;;
13244;SDS011;6689;53.400;12.486;2023-11-21T09:11:31;8.88;;;5.20;;
13244;SDS011;6689;53.400;12.486;2023-11-21T09:14:00;7.30;;;4.72;;
13244;SDS011;6689;53.400;12.486;2023-11-21T09:16:28;6.72;;;4.70;;
13244;SDS011;6689;53.400;12.486;2023-11-21T09:18:57;7.32;;;5.40;;
13244;SDS011;6689;53.400;12.486;2023-11-21T09:21:24;9.93;;;6.18;;
13244;SDS011;6689;53.400;12.486;2023-11-21T09:23:52;9.48;;;6.95;;
13244;SDS011;6689;53.400;12.486;2023-11-21T09:26:20;6.85;;;4.60;;
13244;SDS011;6689;53.400;12.486;2023-11-21T09:28:47;7.28;;;6.05;;
13244;SDS011;6689;53.400;12.486;2023-11-21T09:31:16;8.00;;;5.75;;
13244;SDS011;6689;53.400;12.486;2023-11-21T09:33:47;11.02;;;6.63;;
13244;SDS011;6689;53.400;12.486;2023-11-21T09:36:16;10.60;;;5.78;;
13244;SDS011;6689;53.400;12.486;2023-11-21T09:38:43;7.80;;;5.50;;
13244;SDS011;6689;53.400;12.486;2023-11-21T09:41:12;8.23;;;5.80;;
13244;SDS011;6689;53.400;12.486;2023-11-21T09:43:47;7.40;;;5.22;;
13244;SDS011;6689;53.400;12.486;2023-11-21T09:46:22;9.07;;;5.65;;
13244;SDS011;6689;53.400;12.486;2023-11-21T09:48:53;7.43;;;5.65;;
13244;SDS011;6689;53.400;12.486;2023-11-21T09:51:21;9.00;;;6.40;;
13244;SDS011;6689;53.400;12.486;2023-11-21T09:53:55;9.68;;;6.43;;
13244;SDS011;6689;53.400;12.486;2023-11-21T09:56:26;8.57;;;5.35;;
13244;SDS011;6689;53.400;12.486;2023-11-21T09:58:55;12.10;;;6.15;;
13244;SDS011;6689;53.400;12.486;2023-11-21T10:01:25;8.30;;;5.95;;
13244;SDS011;6689;53.400;12.486;2023-11-21T10:03:54;7.57;;;5.78;;
13244;SDS011;6689;53.400;12.486;2023-11-21T10:06:22;8.65;;;5.97;;
13244;SDS011;6689;53.400;12.486;2023-11-21T10:08:51;13.35;;;7.05;;
13244;SDS011;6689;53.400;12.486;2023-11-21T10:11:21;8.60;;;5.75;;
13244;SDS011;6689;53.400;12.486;2023-11-21T10:13:52;11.40;;;6.40;;
13244;SDS011;6689;53.400;12.486;2023-11-21T10:16:25;11.20;;;7.72;;
13244;SDS011;6689;53.400;12.486;2023-11-21T10:18:53;8.55;;;6.05;;
13244;SDS011;6689;53.400;12.486;2023-11-21T10:21:22;11.48;;;7.00;;
13244;SDS011;6689;53.400;12.486;2023-11-21T10:23:50;6.78;;;5.50;;
13244;SDS011;6689;53.400;12.486;2023-11-21T10:26:20;14.77;;;6.68;;
13244;SDS011;6689;53.400;12.486;2023-11-21T10:28:56;9.32;;;6.82;;
13244;SDS011;6689;53.400;12.486;2023-11-21T10:31:28;10.88;;;6.55;;
13244;SDS011;6689;53.400;12.486;2023-11-21T10:33:57;9.55;;;7.15;;
13244;SDS011;6689;53.400;12.486;2023-11-21T10:36:40;9.43;;;6.53;;
13244;SDS011;6689;53.400;12.486;2023-11-21T10:39:09;8.02;;;5.90;;
13244;SDS011;6689;53.400;12.486;2023-11-21T10:41:43;11.63;;;5.78;;
13244;SDS011;6689;53.400;12.486;2023-11-21T10:44:13;9.02;;;5.95;;
13244;SDS011;6689;53.400;12.486;2023-11-21T10:46:46;7.90;;;5.68;;
13244;SDS011;6689;53.400;12.486;2023-11-21T10:49:16;12.48;;;7.57;;
13244;SDS011;6689;53.400;12.486;2023-11-21T10:51:44;10.63;;;5.90;;
13244;SDS011;6689;53.400;12.486;2023-11-21T10:54:16;10.82;;;7.28;;
13244;SDS011;6689;53.400;12.486;2023-11-21T10:56:45;9.05;;;6.45;;
13244;SDS011;6689;53.400;12.486;2023-11-21T10:59:16;8.48;;;6.10;;
13244;SDS011;6689;53.400;12.486;2023-11-21T11:01:44;6.70;;;5.47;;
13244;SDS011;6689;53.400;12.486;2023-11-21T11:04:15;8.45;;;6.75;;
13244;SDS011;6689;53.400;12.486;2023-11-21T11:06:48;10.43;;;6.25;;
13244;SDS011;6689;53.400;12.486;2023-11-21T11:09:22;9.50;;;5.43;;
13244;SDS011;6689;53.400;12.486;2023-11-21T11:11:50;11.88;;;6.30;;
13244;SDS011;6689;53.400;12.486;2023-11-21T11:14:19;9.98;;;6.07;;
13244;SDS011;6689;53.400;12.486;2023-11-21T11:16:53;8.60;;;6.65;;
13244;SDS011;6689;53.400;12.486;2023-11-21T11:19:21;8.80;;;5.72;;
13244;SDS011;6689;53.400;12.486;2023-11-21T11:21:53;10.20;;;6.10;;
13244;SDS011;6689;53.400;12.486;2023-11-21T11:24:33;9.35;;;6.50;;
13244;SDS011;6689;53.400;12.486;2023-11-21T11:27:15;11.35;;;6.93;;
13244;SDS011;6689;53.400;12.486;2023-11-21T11:29:54;8.35;;;5.68;;
13244;SDS011;6689;53.400;12.486;2023-11-21T11:32:38;8.07;;;5.30;;
13244;SDS011;6689;53.400;12.486;2023-11-21T11:35:17;9.63;;;6.63;;
13244;SDS011;6689;53.400;12.486;2023-11-21T11:37:51;9.85;;;5.78;;
13244;SDS011;6689;53.400;12.486;2023-11-21T11:40:19;10.45;;;6.18;;
13244;SDS011;6689;53.400;12.486;2023-11-21T11:42:56;11.32;;;6.03;;
13244;SDS011;6689;53.400;12.486;2023-11-21T11:45:31;8.00;;;5.70;;
13244;SDS011;6689;53.400;12.486;2023-11-21T11:48:02;10.27;;;6.60;;
13244;SDS011;6689;53.400;12.486;2023-11-21T11:50:31;8.70;;;5.20;;
13244;SDS011;6689;53.400;12.486;2023-11-21T11:53:11;9.35;;;6.05;;
13244;SDS011;6689;53.400;12.486;2023-11-21T11:55:39;22.77;;;5.55;;
13244;SDS011;6689;53.400;12.486;2023-11-21T11:58:07;8.52;;;5.35;;
13244;SDS011;6689;53.400;12.486;2023-11-21T12:00:35;8.48;;;5.47;;
13244;SDS011;6689;53.400;12.486;2023-11-21T12:03:07;8.65;;;5.30;;
13244;SDS011;6689;53.400;12.486;2023-11-21T12:05:35;8.50;;;5.60;;
13244;SDS011;6689;53.400;12.486;2023-11-21T12:08:05;8.75;;;5.88;;
13244;SDS011;6689;53.400;12.486;2023-11-21T12:10:36;8.65;;;5.30;;
13244;SDS011;6689;53.400;12.486;2023-11-21T12:13:06;7.18;;;5.15;;
13244;SDS011;6689;53.400;12.486;2023-11-21T12:15:35;8.23;;;5.82;;
13244;SDS011;6689;53.400;12.486;2023-11-21T12:18:03;9.65;;;5.65;;
13244;SDS011;6689;53.400;12.486;2023-11-21T12:20:33;9.82;;;6.07;;
13244;SDS011;6689;53.400;12.486;2023-11-21T12:23:03;10.57;;;5.10;;
13244;SDS011;6689;53.400;12.486;2023-11-21T12:25:31;10.05;;;6.60;;
13244;SDS011;6689;53.400;12.486;2023-11-21T12:27:59;9.75;;;6.50;;
13244;SDS011;6689;53.400;12.486;2023-11-21T12:30:28;7.75;;;5.60;;
13244;SDS011;6689;53.400;12.486;2023-11-21T12:32:57;10.15;;;6.10;;
13244;SDS011;6689;53.400;12.486;2023-11-21T12:35:27;9.65;;;6.07;;
13244;SDS011;6689;53.400;12.486;2023-11-21T12:37:56;11.85;;;5.72;;
13244;SDS011;6689;53.400;12.486;2023-11-21T12:40:24;10.35;;;5.50;;
13244;SDS011;6689;53.400;12.486;2023-11-21T12:42:55;7.15;;;5.28;;
13244;SDS011;6689;53.400;12.486;2023-11-21T12:45:26;12.27;;;5.97;;
13244;SDS011;6689;53.400;12.486;2023-11-21T12:47:56;8.52;;;4.70;;
13244;SDS011;6689;53.400;12.486;2023-11-21T12:50:27;7.18;;;4.78;;
13244;SDS011;6689;53.400;12.486;2023-11-21T12:52:58;9.23;;;5.18;;
13244;SDS011;6689;53.400;12.486;2023-11-21T12:55:29;6.47;;;4.80;;
13244;SDS011;6689;53.400;12.486;2023-11-21T12:57:57;7.22;;;4.65;;
13244;SDS011;6689;53.400;12.486;2023-11-21T13:00:34;8.02;;;5.03;;
13244;SDS011;6689;53.400;12.486;2023-11-21T13:03:03;7.35;;;4.22;;
13244;SDS011;6689;53.400;12.486;2023-11-21T13:05:34;10.60;;;4.05;;
13244;SDS011;6689;53.400;12.486;2023-11-21T13:08:04;7.97;;;4.93;;
13244;SDS011;6689;53.400;12.486;2023-11-21T13:10:35;8.60;;;4.40;;
13244;SDS011;6689;53.400;12.486;2023-11-21T13:13:04;7.05;;;4.68;;
13244;SDS011;6689;53.400;12.486;2023-11-21T13:15:34;7.78;;;4.55;;
13244;SDS011;6689;53.400;12.486;2023-11-21T13:18:05;6.07;;;4.03;;
13244;SDS011;6689;53.400;12.486;2023-11-21T13:20:37;9.00;;;5.00;;
13244;SDS011;6689;53.400;12.486;2023-11-21T13:23:07;5.97;;;4.38;;
13244;SDS011;6689;53.400;12.486;2023-11-21T13:25:37;6.05;;;3.53;;
13244;SDS011;6689;53.400;12.486;2023-11-21T13:28:06;5.38;;;3.63;;
13244;SDS011;6689;53.400;12.486;2023-11-21T13:30:34;5.57;;;3.17;;
13244;SDS011;6689;53.400;12.486;2023-11-21T13:33:02;6.18;;;3.90;;
13244;SDS011;6689;53.400;12.486;2023-11-21T13:35:32;6.28;;;3.38;;
13244;SDS011;6689;53.400;12.486;2023-11-21T13:38:05;5.93;;;3.80;;
13244;SDS011;6689;53.400;12.486;2023-11-21T13:40:34;9.55;;;5.45;;
13244;SDS011;6689;53.400;12.486;2023-11-21T13:43:07;7.40;;;4.65;;
13244;SDS011;6689;53.400;12.486;2023-11-21T13:45:35;8.00;;;4.70;;
13244;SDS011;6689;53.400;12.486;2023-11-21T13:48:02;6.57;;;4.20;;
13244;SDS011;6689;53.400;12.486;2023-11-21T13:50:32;7.38;;;3.70;;
13244;SDS011;6689;53.400;12.486;2023-11-21T13:53:05;6.55;;;4.22;;
13244;SDS011;6689;53.400;12.486;2023-11-21T13:55:43;9.20;;;4.55;;
13244;SDS011;6689;53.400;12.486;2023-11-21T13:58:12;6.00;;;4.07;;
13244;SDS011;6689;53.400;12.486;2023-11-21T14:00:44;6.00;;;4.10;;
13244;SDS011;6689;53.400;12.486;2023-11-21T14:03:21;6.45;;;3.97;;
13244;SDS011;6689;53.400;12.486;2023-11-21T14:05:57;8.02;;;4.63;;
13244;SDS011;6689;53.400;12.486;2023-11-21T14:08:27;5.10;;;3.83;;
13244;SDS011;6689;53.400;12.486;2023-11-21T14:10:54;8.73;;;4.38;;
13244;SDS011;6689;53.400;12.486;2023-11-21T14:13:25;7.20;;;4.22;;
13244;SDS011;6689;53.400;12.486;2023-11-21T14:15:52;10.95;;;4.10;;
13244;SDS011;6689;53.400;12.486;2023-11-21T14:18:24;7.70;;;4.35;;
13244;SDS011;6689;53.400;12.486;2023-11-21T14:20:56;6.47;;;3.55;;
13244;SDS011;6689;53.400;12.486;2023-11-21T14:23:23;6.43;;;3.90;;
13244;SDS011;6689;53.400;12.486;2023-11-21T14:25:52;7.55;;;4.30;;
13244;SDS011;6689;53.400;12.486;2023-11-21T14:28:19;5.47;;;3.35;;
13244;SDS011;6689;53.400;12.486;2023-11-21T14:30:48;5.22;;;3.17;;
13244;SDS011;6689;53.400;12.486;2023-11-21T14:33:16;5.15;;;3.42;;
13244;SDS011;6689;53.400;12.486;2023-11-21T14:35:43;5.45;;;3.00;;
13244;SDS011;6689;53.400;12.486;2023-11-21T14:38:12;5.85;;;3.00;;
13244;SDS011;6689;53.400;12.486;2023-11-21T14:40:40;7.68;;;3.13;;
13244;SDS011;6689;53.400;12.486;2023-11-21T14:43:09;5.25;;;3.28;;
13244;SDS011;6689;53.400;12.486;2023-11-21T14:45:36;5.85;;;3.92;;
13244;SDS011;6689;53.400;12.486;2023-11-21T14:48:04;6.60;;;3.80;;
13244;SDS011;6689;53.400;12.486;2023-11-21T14:50:41;8.65;;;3.60;;
13244;SDS011;6689;53.400;12.486;2023-11-21T14:53:16;8.70;;;3.58;;
13244;SDS011;6689;53.400;12.486;2023-11-21T14:56:04;5.25;;;3.05;;
13244;SDS011;6689;53.400;12.486;2023-11-21T14:58:34;5.45;;;3.03;;
13244;SDS011;6689;53.400;12.486;2023-11-21T15:01:03;5.80;;;3.42;;
13244;SDS011;6689;53.400;12.486;2023-11-21T15:03:31;7.22;;;3.33;;
13244;SDS011;6689;53.400;12.486;2023-11-21T15:06:11;6.72;;;3.97;;
13244;SDS011;6689;53.400;12.486;2023-11-21T15:09:01;4.90;;;3.17;;
13244;SDS011;6689;53.400;12.486;2023-11-21T15:14:39;5.40;;;3.45;;
13244;SDS011;6689;53.400;12.486;2023-11-21T15:17:08;9.23;;;4.65;;